Thursday, August 16, 2018, 9:59 AM EDT
Back to Local

KMMU, Morristown Municipal

Location: Morristown, NJ, United States Lat: 40.8
Local Time: 9:59 AM EDT (13:59 GMT) Lon: -74.417
Time Zone: US/Eastern Elev: 187 ft

Show me the last for .
Show Decoded

2018-08-16 08:45 METAR KMMU 161245Z 00000KT 10SM BKN250 25/22 A3007 =
2018-08-16 07:45 METAR KMMU 161145Z 00000KT 7SM BKN250 22/21 A3006 =
2018-08-16 06:45 METAR KMMU 161045Z 00000KT 7SM BKN250 20/20 A3005 =
2018-08-16 06:35 METAR KMMU 161035Z AUTO 00000KT 3SM BR CLR 20/20 A3004 RMK AO2 =
2018-08-16 06:15 METAR KMMU 161015Z AUTO 00000KT 7SM CLR 20/20 A3003 RMK AO2 =
2018-08-16 05:55 METAR KMMU 160955Z AUTO 00000KT 7SM CLR 20/20 A3003 RMK AO2 =
2018-08-16 05:35 METAR KMMU 160935Z AUTO 00000KT 7SM CLR 20/20 A3002 RMK AO2 =
2018-08-16 05:15 METAR KMMU 160915Z AUTO 00000KT 5SM BR CLR 20/20 A3002 RMK AO2 =
2018-08-16 04:55 METAR KMMU 160855Z AUTO 00000KT 5SM BR CLR 20/20 A3001 RMK AO2 =
2018-08-16 04:35 METAR KMMU 160835Z AUTO 00000KT 5SM BR CLR 20/20 A3001 RMK AO2 =
2018-08-16 04:10 METAR KMMU 160810Z AUTO 00000KT 1 1/2SM BR VV007 20/20 A3000 RMK AO2 =
2018-08-16 03:55 METAR KMMU 160755Z AUTO 00000KT 7SM CLR 21/21 A3000 RMK AO2 =
2018-08-16 03:35 METAR KMMU 160735Z AUTO 00000KT 5SM BR CLR 21/21 A3000 RMK AO2 =
2018-08-16 03:15 METAR KMMU 160715Z AUTO 00000KT 7SM CLR 21/21 A3000 RMK AO2 =
2018-08-16 02:55 METAR KMMU 160655Z AUTO 00000KT 5SM BR CLR 21/21 A3000 RMK AO2 =
2018-08-16 02:35 METAR KMMU 160635Z AUTO 00000KT 7SM CLR 22/22 A3000 RMK AO2 =
2018-08-16 02:15 METAR KMMU 160615Z AUTO 00000KT 10SM CLR 22/21 A2999 RMK AO2 =
2018-08-16 01:55 METAR KMMU 160555Z AUTO 00000KT 7SM CLR 22/22 A2998 RMK AO2 =
2018-08-16 01:35 METAR KMMU 160535Z AUTO 00000KT 10SM CLR 23/22 A2999 RMK AO2 =
2018-08-16 01:15 METAR KMMU 160515Z AUTO 00000KT 10SM CLR 23/22 A2999 RMK AO2 =
2018-08-16 00:55 METAR KMMU 160455Z AUTO 00000KT 10SM CLR 22/22 A2999 RMK AO2 =
2018-08-16 00:35 METAR KMMU 160435Z AUTO 00000KT 10SM CLR 22/22 A2999 RMK AO2 =
2018-08-16 00:15 METAR KMMU 160415Z AUTO 00000KT 10SM CLR 22/22 A2999 RMK AO2 =
2018-08-15 23:55 METAR KMMU 160355Z AUTO 00000KT 10SM CLR 22/22 A2999 RMK AO2 =
2018-08-15 23:35 METAR KMMU 160335Z AUTO 00000KT 10SM CLR 23/22 A2998 RMK AO2 P0001 =
2018-08-15 23:15 METAR KMMU 160315Z AUTO 00000KT 10SM CLR 23/23 A2998 RMK AO2 =
2018-08-15 22:55 METAR KMMU 160255Z AUTO 00000KT 10SM CLR 23/22 A2999 RMK AO2 =
2018-08-15 22:35 METAR KMMU 160235Z AUTO 00000KT 10SM CLR 23/22 A2998 RMK AO2 =
2018-08-15 22:15 METAR KMMU 160215Z AUTO 00000KT 10SM CLR 25/22 A2998 RMK AO2 =
2018-08-15 21:45 METAR KMMU 160145Z 26003KT 10SM SKC 26/22 A2998 =
2018-08-15 20:45 METAR KMMU 160045Z 25005KT 10SM SKC 27/22 A2997 =
2018-08-15 19:45 METAR KMMU 152345Z 27004KT 10SM SCT060 SCT070 28/22 A2995 =
2018-08-15 18:45 METAR KMMU 152245Z 24006KT 10SM SCT060 BKN080 29/22 A2993 =
2018-08-15 17:45 METAR KMMU 152145Z 29008KT 10SM SCT060 SCT250 30/20 A2992 =
2018-08-15 16:45 METAR KMMU 152045Z 30012G16KT 10SM SCT060 SCT250 31/20 A2992 =
2018-08-15 15:45 METAR KMMU 151945Z 32005KT 10SM SCT060 30/21 A2993 =
2018-08-15 14:45 METAR KMMU 151845Z 31007KT 10SM SCT050 30/20 A2993 =
2018-08-15 13:45 METAR KMMU 151745Z 32007G15KT 10SM SCT040 SCT050 30/21 A2993 =
2018-08-15 12:45 METAR KMMU 151645Z 31006G14KT 10SM SCT040 SCT049 29/22 A2994 =
2018-08-15 11:46 METAR KMMU 151546Z 31007G14KT 10SM FEW050 28/21 A2994 =
2018-08-15 11:45 METAR KMMU 151545Z 31007G14KT 10SM FEW050 28/21 A2994 =
2018-08-15 10:46 METAR KMMU 151446Z 34004KT 10SM FEW030 27/21 A2993 =
2018-08-15 10:45 METAR KMMU 151445Z 34004KT 10SM FEW 030 27/21 A2993 =

Support USWX by starting your Amazon purchase here.